sensor_id;sensor_type;location;lat;lon;timestamp;temperature;humidity
6956;DHT22;50345;51.136;16.886;2024-03-06T00:00:00;6.60;99.90
6956;DHT22;50345;51.136;16.886;2024-03-06T00:02:26;6.60;99.90
6956;DHT22;50345;51.136;16.886;2024-03-06T00:04:51;6.60;99.90
6956;DHT22;50345;51.136;16.886;2024-03-06T00:07:17;6.70;99.90
6956;DHT22;50345;51.136;16.886;2024-03-06T00:09:42;6.60;99.90
6956;DHT22;50345;51.136;16.886;2024-03-06T00:12:08;6.60;99.90
6956;DHT22;50345;51.136;16.886;2024-03-06T00:14:34;6.60;99.90
6956;DHT22;50345;51.136;16.886;2024-03-06T00:17:01;6.70;99.90
6956;DHT22;50345;51.136;16.886;2024-03-06T00:19:30;6.70;99.90
6956;DHT22;50345;51.136;16.886;2024-03-06T00:21:55;6.70;99.90
6956;DHT22;50345;51.136;16.886;2024-03-06T00:24:21;6.70;99.90
6956;DHT22;50345;51.136;16.886;2024-03-06T00:26:48;6.70;99.90
6956;DHT22;50345;51.136;16.886;2024-03-06T00:29:14;6.70;99.90
6956;DHT22;50345;51.136;16.886;2024-03-06T00:31:44;6.60;99.90
6956;DHT22;50345;51.136;16.886;2024-03-06T00:34:10;6.60;99.90
6956;DHT22;50345;51.136;16.886;2024-03-06T00:36:37;6.50;99.90
6956;DHT22;50345;51.136;16.886;2024-03-06T00:39:03;6.50;99.90
6956;DHT22;50345;51.136;16.886;2024-03-06T00:41:30;6.50;99.90
6956;DHT22;50345;51.136;16.886;2024-03-06T00:43:56;6.50;99.90
6956;DHT22;50345;51.136;16.886;2024-03-06T00:46:22;6.50;99.90
6956;DHT22;50345;51.136;16.886;2024-03-06T00:48:48;6.50;99.90
6956;DHT22;50345;51.136;16.886;2024-03-06T00:51:14;6.50;99.90
6956;DHT22;50345;51.136;16.886;2024-03-06T00:53:39;6.50;99.90
6956;DHT22;50345;51.136;16.886;2024-03-06T00:56:07;6.40;99.90
6956;DHT22;50345;51.136;16.886;2024-03-06T00:58:33;6.40;99.90
6956;DHT22;50345;51.136;16.886;2024-03-06T01:00:58;6.50;99.90
6956;DHT22;50345;51.136;16.886;2024-03-06T01:03:24;6.50;99.90
6956;DHT22;50345;51.136;16.886;2024-03-06T01:05:50;6.40;99.90
6956;DHT22;50345;51.136;16.886;2024-03-06T01:08:17;6.40;99.90
6956;DHT22;50345;51.136;16.886;2024-03-06T01:10:43;6.40;99.90
6956;DHT22;50345;51.136;16.886;2024-03-06T01:13:09;6.40;99.90
6956;DHT22;50345;51.136;16.886;2024-03-06T01:15:36;6.40;99.90
6956;DHT22;50345;51.136;16.886;2024-03-06T01:18:02;6.40;99.90
6956;DHT22;50345;51.136;16.886;2024-03-06T01:20:29;6.40;99.90
6956;DHT22;50345;51.136;16.886;2024-03-06T01:22:54;6.40;99.90
6956;DHT22;50345;51.136;16.886;2024-03-06T01:25:20;6.40;99.90
6956;DHT22;50345;51.136;16.886;2024-03-06T01:27:48;6.30;99.90
6956;DHT22;50345;51.136;16.886;2024-03-06T01:30:13;6.30;99.90
6956;DHT22;50345;51.136;16.886;2024-03-06T01:32:39;6.30;99.90
6956;DHT22;50345;51.136;16.886;2024-03-06T01:35:05;6.30;99.90
6956;DHT22;50345;51.136;16.886;2024-03-06T01:37:31;6.30;99.90
6956;DHT22;50345;51.136;16.886;2024-03-06T01:39:57;6.30;99.90
6956;DHT22;50345;51.136;16.886;2024-03-06T01:42:23;6.30;99.90
6956;DHT22;50345;51.136;16.886;2024-03-06T01:44:49;6.30;99.90
6956;DHT22;50345;51.136;16.886;2024-03-06T01:47:15;6.30;99.90
6956;DHT22;50345;51.136;16.886;2024-03-06T01:49:41;6.30;99.90
6956;DHT22;50345;51.136;16.886;2024-03-06T01:52:09;6.30;99.90
6956;DHT22;50345;51.136;16.886;2024-03-06T01:54:38;6.30;99.90
6956;DHT22;50345;51.136;16.886;2024-03-06T01:57:05;6.30;99.90
6956;DHT22;50345;51.136;16.886;2024-03-06T01:59:32;6.20;99.90
6956;DHT22;50345;51.136;16.886;2024-03-06T02:01:58;6.20;99.90
6956;DHT22;50345;51.136;16.886;2024-03-06T02:04:24;6.10;99.90
6956;DHT22;50345;51.136;16.886;2024-03-06T02:06:53;6.10;99.90
6956;DHT22;50345;51.136;16.886;2024-03-06T02:09:19;6.00;99.90
6956;DHT22;50345;51.136;16.886;2024-03-06T02:11:45;6.00;99.90
6956;DHT22;50345;51.136;16.886;2024-03-06T02:14:11;5.80;99.90
6956;DHT22;50345;51.136;16.886;2024-03-06T02:16:38;5.80;99.90
6956;DHT22;50345;51.136;16.886;2024-03-06T02:19:06;5.80;99.90
6956;DHT22;50345;51.136;16.886;2024-03-06T02:21:31;5.70;99.90
6956;DHT22;50345;51.136;16.886;2024-03-06T02:23:57;5.60;99.90
6956;DHT22;50345;51.136;16.886;2024-03-06T02:26:23;5.50;99.90
6956;DHT22;50345;51.136;16.886;2024-03-06T02:28:54;5.40;99.90
6956;DHT22;50345;51.136;16.886;2024-03-06T02:31:21;5.40;99.90
6956;DHT22;50345;51.136;16.886;2024-03-06T02:33:48;5.30;99.90
6956;DHT22;50345;51.136;16.886;2024-03-06T02:36:15;5.20;99.90
6956;DHT22;50345;51.136;16.886;2024-03-06T02:38:42;5.20;99.90
6956;DHT22;50345;51.136;16.886;2024-03-06T02:41:09;5.10;99.90
6956;DHT22;50345;51.136;16.886;2024-03-06T02:43:36;5.10;99.90
6956;DHT22;50345;51.136;16.886;2024-03-06T02:46:02;5.00;99.90
6956;DHT22;50345;51.136;16.886;2024-03-06T02:48:28;4.90;99.90
6956;DHT22;50345;51.136;16.886;2024-03-06T02:50:55;4.80;99.90
6956;DHT22;50345;51.136;16.886;2024-03-06T02:53:20;4.80;99.90
6956;DHT22;50345;51.136;16.886;2024-03-06T02:55:46;4.70;99.90
6956;DHT22;50345;51.136;16.886;2024-03-06T02:58:12;4.70;99.90
6956;DHT22;50345;51.136;16.886;2024-03-06T03:00:40;4.60;99.90
6956;DHT22;50345;51.136;16.886;2024-03-06T03:03:06;4.60;99.90
6956;DHT22;50345;51.136;16.886;2024-03-06T03:05:32;4.60;99.90
6956;DHT22;50345;51.136;16.886;2024-03-06T03:07:59;4.60;99.90
6956;DHT22;50345;51.136;16.886;2024-03-06T03:10:24;4.60;99.90
6956;DHT22;50345;51.136;16.886;2024-03-06T03:12:51;4.50;99.90
6956;DHT22;50345;51.136;16.886;2024-03-06T03:15:16;4.40;99.90
6956;DHT22;50345;51.136;16.886;2024-03-06T03:17:42;4.40;99.90
6956;DHT22;50345;51.136;16.886;2024-03-06T03:20:08;4.30;99.90
6956;DHT22;50345;51.136;16.886;2024-03-06T03:22:40;4.30;99.90
6956;DHT22;50345;51.136;16.886;2024-03-06T03:25:09;4.20;99.90
6956;DHT22;50345;51.136;16.886;2024-03-06T03:27:37;4.20;99.90
6956;DHT22;50345;51.136;16.886;2024-03-06T03:30:04;4.10;99.90
6956;DHT22;50345;51.136;16.886;2024-03-06T03:32:30;4.10;99.90
6956;DHT22;50345;51.136;16.886;2024-03-06T03:34:56;4.10;99.90
6956;DHT22;50345;51.136;16.886;2024-03-06T03:37:21;4.00;99.90
6956;DHT22;50345;51.136;16.886;2024-03-06T03:39:47;3.90;99.90
6956;DHT22;50345;51.136;16.886;2024-03-06T03:42:13;3.90;99.90
6956;DHT22;50345;51.136;16.886;2024-03-06T03:44:38;3.90;99.90
6956;DHT22;50345;51.136;16.886;2024-03-06T03:47:05;3.90;99.90
6956;DHT22;50345;51.136;16.886;2024-03-06T03:49:31;3.80;99.90
6956;DHT22;50345;51.136;16.886;2024-03-06T03:51:56;3.70;99.90
6956;DHT22;50345;51.136;16.886;2024-03-06T03:54:22;3.60;99.90
6956;DHT22;50345;51.136;16.886;2024-03-06T03:56:47;3.60;99.90
6956;DHT22;50345;51.136;16.886;2024-03-06T03:59:14;3.60;99.90
6956;DHT22;50345;51.136;16.886;2024-03-06T04:01:39;3.60;99.90
6956;DHT22;50345;51.136;16.886;2024-03-06T04:04:05;3.50;99.90
6956;DHT22;50345;51.136;16.886;2024-03-06T04:06:33;3.60;99.90
6956;DHT22;50345;51.136;16.886;2024-03-06T04:08:59;3.50;99.90
6956;DHT22;50345;51.136;16.886;2024-03-06T04:11:24;3.60;99.90
6956;DHT22;50345;51.136;16.886;2024-03-06T04:13:50;3.60;99.90
6956;DHT22;50345;51.136;16.886;2024-03-06T04:16:16;3.70;99.90
6956;DHT22;50345;51.136;16.886;2024-03-06T04:18:43;3.70;99.90
6956;DHT22;50345;51.136;16.886;2024-03-06T04:21:10;3.80;99.90
6956;DHT22;50345;51.136;16.886;2024-03-06T04:23:36;3.80;99.90
6956;DHT22;50345;51.136;16.886;2024-03-06T04:26:02;3.80;99.90
6956;DHT22;50345;51.136;16.886;2024-03-06T04:28:28;3.80;99.90
6956;DHT22;50345;51.136;16.886;2024-03-06T04:30:54;3.80;99.90
6956;DHT22;50345;51.136;16.886;2024-03-06T04:33:20;3.70;99.90
6956;DHT22;50345;51.136;16.886;2024-03-06T04:35:46;3.60;99.90
6956;DHT22;50345;51.136;16.886;2024-03-06T04:38:11;3.60;99.90
6956;DHT22;50345;51.136;16.886;2024-03-06T04:40:37;3.60;99.90
6956;DHT22;50345;51.136;16.886;2024-03-06T04:43:03;3.50;99.90
6956;DHT22;50345;51.136;16.886;2024-03-06T04:45:28;3.40;99.90
6956;DHT22;50345;51.136;16.886;2024-03-06T04:47:55;3.30;99.90
6956;DHT22;50345;51.136;16.886;2024-03-06T04:50:20;3.20;99.90
6956;DHT22;50345;51.136;16.886;2024-03-06T04:52:46;3.20;99.90
6956;DHT22;50345;51.136;16.886;2024-03-06T04:55:12;3.10;99.90
6956;DHT22;50345;51.136;16.886;2024-03-06T04:57:38;3.10;99.90
6956;DHT22;50345;51.136;16.886;2024-03-06T05:00:06;3.00;99.90
6956;DHT22;50345;51.136;16.886;2024-03-06T05:02:33;3.00;99.90
6956;DHT22;50345;51.136;16.886;2024-03-06T05:05:00;2.90;99.90
6956;DHT22;50345;51.136;16.886;2024-03-06T05:07:30;2.90;99.90
6956;DHT22;50345;51.136;16.886;2024-03-06T05:09:57;2.90;99.90
6956;DHT22;50345;51.136;16.886;2024-03-06T05:12:24;2.80;99.90
6956;DHT22;50345;51.136;16.886;2024-03-06T05:14:50;2.70;99.90
6956;DHT22;50345;51.136;16.886;2024-03-06T05:17:16;2.70;99.90
6956;DHT22;50345;51.136;16.886;2024-03-06T05:19:43;2.60;99.90
6956;DHT22;50345;51.136;16.886;2024-03-06T05:22:08;2.70;99.90
6956;DHT22;50345;51.136;16.886;2024-03-06T05:24:34;2.60;99.90
6956;DHT22;50345;51.136;16.886;2024-03-06T05:27:00;2.60;99.90
6956;DHT22;50345;51.136;16.886;2024-03-06T05:29:25;2.60;99.90
6956;DHT22;50345;51.136;16.886;2024-03-06T05:31:51;2.60;99.90
6956;DHT22;50345;51.136;16.886;2024-03-06T05:34:17;2.60;99.90
6956;DHT22;50345;51.136;16.886;2024-03-06T05:36:43;2.60;99.90
6956;DHT22;50345;51.136;16.886;2024-03-06T05:39:09;2.60;99.90
6956;DHT22;50345;51.136;16.886;2024-03-06T05:41:38;2.60;99.90
6956;DHT22;50345;51.136;16.886;2024-03-06T05:44:05;2.60;99.90
6956;DHT22;50345;51.136;16.886;2024-03-06T05:46:31;2.60;99.90
6956;DHT22;50345;51.136;16.886;2024-03-06T05:48:56;2.70;99.90
6956;DHT22;50345;51.136;16.886;2024-03-06T05:51:22;2.60;99.90
6956;DHT22;50345;51.136;16.886;2024-03-06T05:53:47;2.60;99.90
6956;DHT22;50345;51.136;16.886;2024-03-06T05:56:13;2.50;99.90
6956;DHT22;50345;51.136;16.886;2024-03-06T05:58:39;2.50;99.90
6956;DHT22;50345;51.136;16.886;2024-03-06T06:01:04;2.50;99.90
6956;DHT22;50345;51.136;16.886;2024-03-06T06:03:30;2.60;99.90
6956;DHT22;50345;51.136;16.886;2024-03-06T06:05:56;2.60;99.90
6956;DHT22;50345;51.136;16.886;2024-03-06T06:08:22;2.60;99.90
6956;DHT22;50345;51.136;16.886;2024-03-06T06:10:48;2.70;99.90
6956;DHT22;50345;51.136;16.886;2024-03-06T06:13:13;2.70;99.90
6956;DHT22;50345;51.136;16.886;2024-03-06T06:15:40;2.80;99.90
6956;DHT22;50345;51.136;16.886;2024-03-06T06:18:06;2.80;99.90
6956;DHT22;50345;51.136;16.886;2024-03-06T06:20:32;2.90;99.90
6956;DHT22;50345;51.136;16.886;2024-03-06T06:22:58;3.00;99.90
6956;DHT22;50345;51.136;16.886;2024-03-06T06:25:23;3.00;99.90
6956;DHT22;50345;51.136;16.886;2024-03-06T06:27:49;3.10;99.90
6956;DHT22;50345;51.136;16.886;2024-03-06T06:30:15;3.10;99.90
6956;DHT22;50345;51.136;16.886;2024-03-06T06:32:41;3.20;99.90
6956;DHT22;50345;51.136;16.886;2024-03-06T06:35:08;3.20;99.90
6956;DHT22;50345;51.136;16.886;2024-03-06T06:37:35;3.30;99.90
6956;DHT22;50345;51.136;16.886;2024-03-06T06:40:01;3.40;99.90
6956;DHT22;50345;51.136;16.886;2024-03-06T06:42:32;3.50;99.90
6956;DHT22;50345;51.136;16.886;2024-03-06T06:44:59;3.60;99.90
6956;DHT22;50345;51.136;16.886;2024-03-06T06:47:25;3.70;99.90
6956;DHT22;50345;51.136;16.886;2024-03-06T06:49:50;3.80;99.90
6956;DHT22;50345;51.136;16.886;2024-03-06T06:52:16;3.90;99.90
6956;DHT22;50345;51.136;16.886;2024-03-06T06:54:42;4.00;99.90
6956;DHT22;50345;51.136;16.886;2024-03-06T06:57:08;4.10;99.90
6956;DHT22;50345;51.136;16.886;2024-03-06T06:59:34;4.20;99.90
6956;DHT22;50345;51.136;16.886;2024-03-06T07:02:00;4.30;99.90
6956;DHT22;50345;51.136;16.886;2024-03-06T07:04:26;4.40;99.90
6956;DHT22;50345;51.136;16.886;2024-03-06T07:06:52;4.50;99.90
6956;DHT22;50345;51.136;16.886;2024-03-06T07:09:17;4.50;99.90
6956;DHT22;50345;51.136;16.886;2024-03-06T07:11:44;4.60;99.90
6956;DHT22;50345;51.136;16.886;2024-03-06T07:14:12;4.70;99.90
6956;DHT22;50345;51.136;16.886;2024-03-06T07:16:44;4.80;99.90
6956;DHT22;50345;51.136;16.886;2024-03-06T07:19:10;4.90;99.90
6956;DHT22;50345;51.136;16.886;2024-03-06T07:21:36;5.00;99.90
6956;DHT22;50345;51.136;16.886;2024-03-06T07:24:03;5.10;99.90
6956;DHT22;50345;51.136;16.886;2024-03-06T07:26:29;5.20;99.90
6956;DHT22;50345;51.136;16.886;2024-03-06T07:28:56;5.30;99.90
6956;DHT22;50345;51.136;16.886;2024-03-06T07:31:21;5.40;99.90
6956;DHT22;50345;51.136;16.886;2024-03-06T07:33:47;5.50;99.90
6956;DHT22;50345;51.136;16.886;2024-03-06T07:36:12;5.60;99.90
6956;DHT22;50345;51.136;16.886;2024-03-06T07:38:38;5.70;99.90
6956;DHT22;50345;51.136;16.886;2024-03-06T07:41:03;5.80;99.90
6956;DHT22;50345;51.136;16.886;2024-03-06T07:43:29;5.90;99.90
6956;DHT22;50345;51.136;16.886;2024-03-06T07:45:55;6.00;99.90
6956;DHT22;50345;51.136;16.886;2024-03-06T07:48:21;6.10;99.90
6956;DHT22;50345;51.136;16.886;2024-03-06T07:50:46;6.30;99.90
6956;DHT22;50345;51.136;16.886;2024-03-06T07:53:12;6.40;99.90
6956;DHT22;50345;51.136;16.886;2024-03-06T07:55:37;6.60;99.90
6956;DHT22;50345;51.136;16.886;2024-03-06T07:58:04;6.60;99.90
6956;DHT22;50345;51.136;16.886;2024-03-06T08:00:30;6.70;99.90
6956;DHT22;50345;51.136;16.886;2024-03-06T08:02:56;6.90;99.90
6956;DHT22;50345;51.136;16.886;2024-03-06T08:05:22;7.00;99.90
6956;DHT22;50345;51.136;16.886;2024-03-06T08:07:48;7.10;99.90
6956;DHT22;50345;51.136;16.886;2024-03-06T08:10:13;7.20;99.90
6956;DHT22;50345;51.136;16.886;2024-03-06T08:12:40;7.30;99.90
6956;DHT22;50345;51.136;16.886;2024-03-06T08:15:08;7.40;99.90
6956;DHT22;50345;51.136;16.886;2024-03-06T08:17:35;7.60;99.90
6956;DHT22;50345;51.136;16.886;2024-03-06T08:20:04;7.80;99.90
6956;DHT22;50345;51.136;16.886;2024-03-06T08:22:34;8.00;99.90
6956;DHT22;50345;51.136;16.886;2024-03-06T08:25:11;8.10;99.90
6956;DHT22;50345;51.136;16.886;2024-03-06T08:27:39;8.20;99.90
6956;DHT22;50345;51.136;16.886;2024-03-06T08:30:06;8.40;99.90
6956;DHT22;50345;51.136;16.886;2024-03-06T08:32:32;8.50;99.90
6956;DHT22;50345;51.136;16.886;2024-03-06T08:35:08;8.70;99.90
6956;DHT22;50345;51.136;16.886;2024-03-06T08:37:40;8.90;99.90
6956;DHT22;50345;51.136;16.886;2024-03-06T08:40:07;9.10;99.90
6956;DHT22;50345;51.136;16.886;2024-03-06T08:42:33;9.20;99.90
6956;DHT22;50345;51.136;16.886;2024-03-06T08:44:59;9.40;99.90
6956;DHT22;50345;51.136;16.886;2024-03-06T08:47:25;9.60;99.90
6956;DHT22;50345;51.136;16.886;2024-03-06T08:49:58;9.90;99.90
6956;DHT22;50345;51.136;16.886;2024-03-06T08:52:23;10.10;99.90
6956;DHT22;50345;51.136;16.886;2024-03-06T08:54:49;10.30;99.90
6956;DHT22;50345;51.136;16.886;2024-03-06T08:57:14;10.50;99.90
6956;DHT22;50345;51.136;16.886;2024-03-06T08:59:41;10.60;99.90
6956;DHT22;50345;51.136;16.886;2024-03-06T09:02:14;10.90;99.90
6956;DHT22;50345;51.136;16.886;2024-03-06T09:04:41;10.90;99.90
6956;DHT22;50345;51.136;16.886;2024-03-06T09:07:07;11.20;99.90
6956;DHT22;50345;51.136;16.886;2024-03-06T09:09:33;11.50;99.90
6956;DHT22;50345;51.136;16.886;2024-03-06T09:12:03;11.80;99.90
6956;DHT22;50345;51.136;16.886;2024-03-06T09:14:31;12.20;99.80
6956;DHT22;50345;51.136;16.886;2024-03-06T09:16:57;12.50;96.90
6956;DHT22;50345;51.136;16.886;2024-03-06T09:19:23;13.10;93.00
6956;DHT22;50345;51.136;16.886;2024-03-06T09:21:48;13.40;88.60
6956;DHT22;50345;51.136;16.886;2024-03-06T09:24:14;13.90;86.20
6956;DHT22;50345;51.136;16.886;2024-03-06T09:26:40;14.40;81.60
6956;DHT22;50345;51.136;16.886;2024-03-06T09:29:05;14.90;72.70
6956;DHT22;50345;51.136;16.886;2024-03-06T09:31:31;15.10;69.40
6956;DHT22;50345;51.136;16.886;2024-03-06T09:33:57;15.20;71.10
6956;DHT22;50345;51.136;16.886;2024-03-06T09:36:23;15.20;65.70
6956;DHT22;50345;51.136;16.886;2024-03-06T09:38:50;15.00;67.00
6956;DHT22;50345;51.136;16.886;2024-03-06T09:41:16;15.50;67.70
6956;DHT22;50345;51.136;16.886;2024-03-06T09:43:44;16.20;63.20
6956;DHT22;50345;51.136;16.886;2024-03-06T09:46:10;16.70;59.70
6956;DHT22;50345;51.136;16.886;2024-03-06T09:48:35;17.00;58.80
6956;DHT22;50345;51.136;16.886;2024-03-06T09:51:02;17.50;59.10
6956;DHT22;50345;51.136;16.886;2024-03-06T09:53:28;17.90;55.30
6956;DHT22;50345;51.136;16.886;2024-03-06T09:55:56;17.50;53.70
6956;DHT22;50345;51.136;16.886;2024-03-06T09:58:23;17.00;54.30
6956;DHT22;50345;51.136;16.886;2024-03-06T10:00:50;16.60;54.70
6956;DHT22;50345;51.136;16.886;2024-03-06T10:03:16;16.40;54.20
6956;DHT22;50345;51.136;16.886;2024-03-06T10:05:41;15.90;54.10
6956;DHT22;50345;51.136;16.886;2024-03-06T10:08:09;15.40;55.50
6956;DHT22;50345;51.136;16.886;2024-03-06T10:10:35;15.60;56.30
6956;DHT22;50345;51.136;16.886;2024-03-06T10:13:02;16.40;55.30
6956;DHT22;50345;51.136;16.886;2024-03-06T10:15:27;17.20;54.50
6956;DHT22;50345;51.136;16.886;2024-03-06T10:18:15;18.10;51.40
6956;DHT22;50345;51.136;16.886;2024-03-06T10:20:43;18.80;50.40
6956;DHT22;50345;51.136;16.886;2024-03-06T10:23:09;19.40;48.70
6956;DHT22;50345;51.136;16.886;2024-03-06T10:25:35;19.60;47.30
6956;DHT22;50345;51.136;16.886;2024-03-06T10:28:09;19.70;46.70
6956;DHT22;50345;51.136;16.886;2024-03-06T10:30:42;19.70;45.80
6956;DHT22;50345;51.136;16.886;2024-03-06T10:33:08;19.30;44.90
6956;DHT22;50345;51.136;16.886;2024-03-06T10:35:37;19.00;44.70
6956;DHT22;50345;51.136;16.886;2024-03-06T10:38:04;18.70;44.80
6956;DHT22;50345;51.136;16.886;2024-03-06T10:40:41;18.70;44.60
6956;DHT22;50345;51.136;16.886;2024-03-06T10:43:08;18.40;44.40
6956;DHT22;50345;51.136;16.886;2024-03-06T10:46:00;18.30;44.50
6956;DHT22;50345;51.136;16.886;2024-03-06T10:48:30;18.40;43.90
6956;DHT22;50345;51.136;16.886;2024-03-06T10:50:57;18.20;44.20
6956;DHT22;50345;51.136;16.886;2024-03-06T10:53:23;17.70;45.30
6956;DHT22;50345;51.136;16.886;2024-03-06T10:55:52;17.20;46.80
6956;DHT22;50345;51.136;16.886;2024-03-06T10:58:20;17.00;47.30
6956;DHT22;50345;51.136;16.886;2024-03-06T11:00:46;17.10;49.30
6956;DHT22;50345;51.136;16.886;2024-03-06T11:03:13;17.50;49.70
6956;DHT22;50345;51.136;16.886;2024-03-06T11:05:40;17.80;49.70
6956;DHT22;50345;51.136;16.886;2024-03-06T11:08:10;18.30;49.60
6956;DHT22;50345;51.136;16.886;2024-03-06T11:10:41;18.70;49.20
6956;DHT22;50345;51.136;16.886;2024-03-06T11:13:25;18.80;48.40
6956;DHT22;50345;51.136;16.886;2024-03-06T11:15:53;18.30;48.30
6956;DHT22;50345;51.136;16.886;2024-03-06T11:24:12;16.20;49.30
6956;DHT22;50345;51.136;16.886;2024-03-06T11:26:43;15.70;50.20
6956;DHT22;50345;51.136;16.886;2024-03-06T11:29:11;15.10;51.50
6956;DHT22;50345;51.136;16.886;2024-03-06T11:31:36;14.50;51.80
6956;DHT22;50345;51.136;16.886;2024-03-06T11:34:04;14.10;54.20
6956;DHT22;50345;51.136;16.886;2024-03-06T11:36:30;13.70;55.00
6956;DHT22;50345;51.136;16.886;2024-03-06T11:41:30;13.50;57.30
6956;DHT22;50345;51.136;16.886;2024-03-06T11:43:59;13.50;57.70
6956;DHT22;50345;51.136;16.886;2024-03-06T11:46:44;13.60;57.70
6956;DHT22;50345;51.136;16.886;2024-03-06T11:51:45;13.70;57.60
6956;DHT22;50345;51.136;16.886;2024-03-06T11:54:11;13.80;57.50
6956;DHT22;50345;51.136;16.886;2024-03-06T11:56:42;13.80;58.40
6956;DHT22;50345;51.136;16.886;2024-03-06T11:59:09;13.90;58.10
6956;DHT22;50345;51.136;16.886;2024-03-06T12:01:35;14.00;58.20
6956;DHT22;50345;51.136;16.886;2024-03-06T12:04:02;14.00;58.20
6956;DHT22;50345;51.136;16.886;2024-03-06T12:06:30;13.90;58.10
6956;DHT22;50345;51.136;16.886;2024-03-06T12:08:55;13.80;58.20
6956;DHT22;50345;51.136;16.886;2024-03-06T12:11:21;13.60;58.70
6956;DHT22;50345;51.136;16.886;2024-03-06T12:13:51;13.80;59.10
6956;DHT22;50345;51.136;16.886;2024-03-06T12:16:17;14.30;58.80
6956;DHT22;50345;51.136;16.886;2024-03-06T12:18:43;14.70;57.90
6956;DHT22;50345;51.136;16.886;2024-03-06T12:21:10;15.20;56.90
6956;DHT22;50345;51.136;16.886;2024-03-06T12:23:36;15.40;55.40
6956;DHT22;50345;51.136;16.886;2024-03-06T12:26:07;15.40;55.00
6956;DHT22;50345;51.136;16.886;2024-03-06T12:28:35;15.60;54.80
6956;DHT22;50345;51.136;16.886;2024-03-06T12:31:05;15.70;54.60
6956;DHT22;50345;51.136;16.886;2024-03-06T12:33:32;15.70;54.90
6956;DHT22;50345;51.136;16.886;2024-03-06T12:36:04;15.80;53.90
6956;DHT22;50345;51.136;16.886;2024-03-06T12:38:30;15.60;53.60
6956;DHT22;50345;51.136;16.886;2024-03-06T12:40:56;15.20;53.90
6956;DHT22;50345;51.136;16.886;2024-03-06T12:43:22;14.80;54.10
6956;DHT22;50345;51.136;16.886;2024-03-06T12:45:47;14.50;53.50
6956;DHT22;50345;51.136;16.886;2024-03-06T12:48:13;14.30;53.90
6956;DHT22;50345;51.136;16.886;2024-03-06T12:50:38;13.90;54.70
6956;DHT22;50345;51.136;16.886;2024-03-06T12:53:04;13.60;55.60
6956;DHT22;50345;51.136;16.886;2024-03-06T12:55:31;13.40;56.30
6956;DHT22;50345;51.136;16.886;2024-03-06T12:58:01;13.20;57.30
6956;DHT22;50345;51.136;16.886;2024-03-06T13:00:27;12.80;57.50
6956;DHT22;50345;51.136;16.886;2024-03-06T13:02:53;12.60;57.80
6956;DHT22;50345;51.136;16.886;2024-03-06T13:05:19;12.30;56.80
6956;DHT22;50345;51.136;16.886;2024-03-06T13:07:45;12.10;57.70
6956;DHT22;50345;51.136;16.886;2024-03-06T13:10:11;11.60;58.60
6956;DHT22;50345;51.136;16.886;2024-03-06T13:12:38;11.50;59.50
6956;DHT22;50345;51.136;16.886;2024-03-06T13:15:04;11.30;59.40
6956;DHT22;50345;51.136;16.886;2024-03-06T13:17:30;11.30;60.60
6956;DHT22;50345;51.136;16.886;2024-03-06T13:19:56;11.20;61.10
6956;DHT22;50345;51.136;16.886;2024-03-06T13:22:22;11.20;61.70
6956;DHT22;50345;51.136;16.886;2024-03-06T13:24:48;11.20;62.20
6956;DHT22;50345;51.136;16.886;2024-03-06T13:27:14;11.10;62.90
6956;DHT22;50345;51.136;16.886;2024-03-06T13:29:39;11.00;63.50
6956;DHT22;50345;51.136;16.886;2024-03-06T13:32:07;10.90;65.30
6956;DHT22;50345;51.136;16.886;2024-03-06T13:34:32;10.70;65.10
6956;DHT22;50345;51.136;16.886;2024-03-06T13:36:59;10.60;66.50
6956;DHT22;50345;51.136;16.886;2024-03-06T13:39:25;10.40;67.60
6956;DHT22;50345;51.136;16.886;2024-03-06T13:41:51;10.30;69.00
6956;DHT22;50345;51.136;16.886;2024-03-06T13:44:19;10.20;70.50
6956;DHT22;50345;51.136;16.886;2024-03-06T13:46:46;10.10;71.60
6956;DHT22;50345;51.136;16.886;2024-03-06T13:49:41;10.00;72.90
6956;DHT22;50345;51.136;16.886;2024-03-06T13:52:08;9.90;75.70
6956;DHT22;50345;51.136;16.886;2024-03-06T13:54:41;9.90;77.30
6956;DHT22;50345;51.136;16.886;2024-03-06T13:57:08;9.90;79.10
6956;DHT22;50345;51.136;16.886;2024-03-06T13:59:34;9.80;80.50
6956;DHT22;50345;51.136;16.886;2024-03-06T14:02:00;9.70;82.80
6956;DHT22;50345;51.136;16.886;2024-03-06T14:04:26;9.70;85.20
6956;DHT22;50345;51.136;16.886;2024-03-06T14:06:52;9.60;87.40
6956;DHT22;50345;51.136;16.886;2024-03-06T14:09:18;9.60;89.80
6956;DHT22;50345;51.136;16.886;2024-03-06T14:11:44;9.60;91.00
6956;DHT22;50345;51.136;16.886;2024-03-06T14:14:09;9.50;91.80
6956;DHT22;50345;51.136;16.886;2024-03-06T14:16:36;9.50;92.40
6956;DHT22;50345;51.136;16.886;2024-03-06T14:19:02;9.50;93.10
6956;DHT22;50345;51.136;16.886;2024-03-06T14:21:30;9.50;94.00
6956;DHT22;50345;51.136;16.886;2024-03-06T14:23:58;9.50;94.70
6956;DHT22;50345;51.136;16.886;2024-03-06T14:26:24;9.50;95.30
6956;DHT22;50345;51.136;16.886;2024-03-06T14:28:49;9.40;96.20
6956;DHT22;50345;51.136;16.886;2024-03-06T14:31:15;9.40;97.00
6956;DHT22;50345;51.136;16.886;2024-03-06T14:33:41;9.40;97.50
6956;DHT22;50345;51.136;16.886;2024-03-06T14:36:07;9.30;98.30
6956;DHT22;50345;51.136;16.886;2024-03-06T14:38:33;9.20;99.20
6956;DHT22;50345;51.136;16.886;2024-03-06T14:40:59;9.10;99.90
6956;DHT22;50345;51.136;16.886;2024-03-06T14:43:25;9.10;99.90
6956;DHT22;50345;51.136;16.886;2024-03-06T14:45:51;9.00;99.90
6956;DHT22;50345;51.136;16.886;2024-03-06T14:48:17;8.90;99.90
6956;DHT22;50345;51.136;16.886;2024-03-06T14:50:43;8.80;99.90
6956;DHT22;50345;51.136;16.886;2024-03-06T14:53:09;8.90;99.90
6956;DHT22;50345;51.136;16.886;2024-03-06T14:55:34;8.80;99.90
6956;DHT22;50345;51.136;16.886;2024-03-06T14:58:00;8.80;99.90
6956;DHT22;50345;51.136;16.886;2024-03-06T15:00:26;8.80;99.90
6956;DHT22;50345;51.136;16.886;2024-03-06T15:02:52;8.90;99.90
6956;DHT22;50345;51.136;16.886;2024-03-06T15:05:17;8.80;99.90
6956;DHT22;50345;51.136;16.886;2024-03-06T15:07:44;8.70;99.90
6956;DHT22;50345;51.136;16.886;2024-03-06T15:10:10;8.60;99.90
6956;DHT22;50345;51.136;16.886;2024-03-06T15:12:35;8.60;99.90
6956;DHT22;50345;51.136;16.886;2024-03-06T15:15:04;8.40;99.90
6956;DHT22;50345;51.136;16.886;2024-03-06T15:17:32;8.30;99.90
6956;DHT22;50345;51.136;16.886;2024-03-06T15:19:58;8.30;99.90
6956;DHT22;50345;51.136;16.886;2024-03-06T15:22:24;8.30;99.90
6956;DHT22;50345;51.136;16.886;2024-03-06T15:24:49;8.20;99.90
6956;DHT22;50345;51.136;16.886;2024-03-06T15:27:18;8.20;99.90
6956;DHT22;50345;51.136;16.886;2024-03-06T15:29:44;8.20;99.90
6956;DHT22;50345;51.136;16.886;2024-03-06T15:32:09;8.20;99.90
6956;DHT22;50345;51.136;16.886;2024-03-06T15:34:38;8.10;99.90
6956;DHT22;50345;51.136;16.886;2024-03-06T15:37:04;8.10;99.90
6956;DHT22;50345;51.136;16.886;2024-03-06T15:39:29;8.00;99.90
6956;DHT22;50345;51.136;16.886;2024-03-06T15:41:55;7.90;99.90
6956;DHT22;50345;51.136;16.886;2024-03-06T15:44:21;7.80;99.90
6956;DHT22;50345;51.136;16.886;2024-03-06T15:46:47;7.80;99.90
6956;DHT22;50345;51.136;16.886;2024-03-06T15:49:23;7.70;99.90